AAL2 KTVL-KORD
Flight info
| Callsign | AAL2 |
|---|---|
| Flight time | 3h 8m |
| Altitude | 37000 |
| Route | RICHY7 SWR FMG MACUS Q124 BVL OCS J94 ONL VIRGN Q122 VIGGR MYRRS FYTTE7 |
| Aircraft | A319/M-SDE3FGHIRWY/LB1 |
Departure
| Time | 2026-04-11 18:34 |
|---|---|
| Airport | Lake Tahoe Airport (KTVL) |
Arrival
| Time | 2026-04-11 21:42 |
|---|---|
| Airport | Chicago O'Hare International Airport (KORD) |
| Time | Latitude | Longitude | Altitude | Speed | Heading |
|---|---|---|---|---|---|
| 2026-04-11 18:20 | 38.89386 | -119.99760 | 6386 ft | 0 kts | 14° |
| 2026-04-11 18:29 | 38.89395 | -119.99754 | 6385 ft | 4 kts | 34° |
| 2026-04-11 18:29 | 38.89368 | -119.99721 | 6386 ft | 10 kts | 193° |
| 2026-04-11 18:30 | 38.89316 | -119.99745 | 6383 ft | 15 kts | 195° |
| 2026-04-11 18:30 | 38.89227 | -119.99714 | 6381 ft | 14 kts | 133° |
| 2026-04-11 18:30 | 38.89114 | -119.99719 | 6380 ft | 12 kts | 191° |
| 2026-04-11 18:30 | 38.89036 | -119.99741 | 6382 ft | 11 kts | 193° |
| 2026-04-11 18:31 | 38.88963 | -119.99764 | 6385 ft | 12 kts | 192° |
| 2026-04-11 18:31 | 38.88868 | -119.99790 | 6384 ft | 16 kts | 192° |
| 2026-04-11 18:31 | 38.88747 | -119.99827 | 6383 ft | 20 kts | 194° |
| 2026-04-11 18:31 | 38.88605 | -119.99868 | 6383 ft | 21 kts | 192° |
| 2026-04-11 18:32 | 38.88465 | -119.99909 | 6383 ft | 20 kts | 193° |
| 2026-04-11 18:32 | 38.88338 | -119.99947 | 6384 ft | 18 kts | 193° |
| 2026-04-11 18:32 | 38.88268 | -119.99940 | 6383 ft | 15 kts | 129° |
| 2026-04-11 18:32 | 38.88292 | -119.99857 | 6381 ft | 9 kts | 343° |
| 2026-04-11 18:33 | 38.88317 | -119.99857 | 6381 ft | 2 kts | 7° |
| 2026-04-11 18:33 | 38.88586 | -119.99774 | 6382 ft | 81 kts | 14° |
| 2026-04-11 18:33 | 38.89392 | -119.99537 | 6380 ft | 154 kts | 13° |
| 2026-04-11 18:33 | 38.90570 | -119.99180 | 6699 ft | 180 kts | 13° |
| 2026-04-11 18:34 | 38.91787 | -119.98801 | 7361 ft | 179 kts | 12° |
| 2026-04-11 18:34 | 38.93004 | -119.98446 | 8087 ft | 183 kts | 11° |
| 2026-04-11 18:34 | 38.94321 | -119.98069 | 8393 ft | 205 kts | 11° |
| 2026-04-11 18:34 | 38.95788 | -119.97632 | 8633 ft | 228 kts | 11° |
| 2026-04-11 18:35 | 38.97406 | -119.97130 | 8844 ft | 251 kts | 13° |
| 2026-04-11 18:35 | 38.99135 | -119.96314 | 9081 ft | 278 kts | 21° |
| 2026-04-11 18:35 | 39.00994 | -119.95300 | 9476 ft | 302 kts | 22° |
| 2026-04-11 18:35 | 39.02963 | -119.94176 | 10091 ft | 315 kts | 23° |
| 2026-04-11 18:36 | 39.05038 | -119.92974 | 10469 ft | 339 kts | 23° |
| 2026-04-11 18:36 | 39.07267 | -119.91686 | 10762 ft | 362 kts | 23° |
| 2026-04-11 18:36 | 39.09611 | -119.90342 | 11312 ft | 374 kts | 22° |
| 2026-04-11 18:36 | 39.12001 | -119.88979 | 12097 ft | 377 kts | 21° |
| 2026-04-11 18:37 | 39.14418 | -119.87609 | 12952 ft | 381 kts | 21° |
| 2026-04-11 18:37 | 39.16856 | -119.86232 | 13740 ft | 384 kts | 21° |
| 2026-04-11 18:37 | 39.19317 | -119.84844 | 14397 ft | 388 kts | 21° |
| 2026-04-11 18:37 | 39.21804 | -119.83437 | 15026 ft | 392 kts | 21° |
| 2026-04-11 18:38 | 39.24311 | -119.82016 | 15664 ft | 395 kts | 21° |
| 2026-04-11 18:38 | 39.26833 | -119.80584 | 16357 ft | 397 kts | 21° |
| 2026-04-11 18:38 | 39.29341 | -119.79160 | 16996 ft | 401 kts | 21° |
| 2026-04-11 18:38 | 39.31911 | -119.77702 | 17647 ft | 406 kts | 21° |
| 2026-04-11 18:39 | 39.34516 | -119.76224 | 18275 ft | 410 kts | 20° |
| 2026-04-11 18:39 | 39.37141 | -119.74738 | 18795 ft | 414 kts | 20° |
| 2026-04-11 18:39 | 39.39794 | -119.73237 | 19338 ft | 418 kts | 21° |
| 2026-04-11 18:39 | 39.42473 | -119.71716 | 19890 ft | 422 kts | 21° |
| 2026-04-11 18:40 | 39.45170 | -119.70175 | 20499 ft | 425 kts | 21° |
| 2026-04-11 18:40 | 39.47884 | -119.68610 | 21045 ft | 429 kts | 23° |
| 2026-04-11 18:40 | 39.50486 | -119.66660 | 21565 ft | 436 kts | 34° |
| 2026-04-11 18:40 | 39.52826 | -119.64131 | 22070 ft | 441 kts | 44° |
| 2026-04-11 18:41 | 39.54824 | -119.61101 | 22571 ft | 445 kts | 55° |
| 2026-04-11 18:41 | 39.56432 | -119.57662 | 23079 ft | 448 kts | 63° |
| 2026-04-11 18:41 | 39.57918 | -119.54092 | 23544 ft | 452 kts | 63° |
| 2026-04-11 18:41 | 39.59417 | -119.50494 | 23936 ft | 455 kts | 62° |
| 2026-04-11 18:42 | 39.60925 | -119.46865 | 24328 ft | 459 kts | 62° |
| 2026-04-11 18:42 | 39.62439 | -119.43210 | 24716 ft | 462 kts | 63° |
| 2026-04-11 18:42 | 39.63964 | -119.39519 | 25095 ft | 465 kts | 63° |
| 2026-04-11 18:42 | 39.65478 | -119.35855 | 25465 ft | 468 kts | 62° |
| 2026-04-11 18:43 | 39.67023 | -119.32118 | 25832 ft | 472 kts | 62° |
| 2026-04-11 18:43 | 39.68581 | -119.28349 | 26218 ft | 475 kts | 62° |
| 2026-04-11 18:43 | 39.70144 | -119.24555 | 26598 ft | 478 kts | 62° |
| 2026-04-11 18:43 | 39.71713 | -119.20736 | 26975 ft | 481 kts | 62° |
| 2026-04-11 18:44 | 39.73297 | -119.16876 | 27334 ft | 485 kts | 62° |
| 2026-04-11 18:44 | 39.74884 | -119.13002 | 27701 ft | 488 kts | 62° |
| 2026-04-11 18:44 | 39.76481 | -119.09104 | 28048 ft | 491 kts | 62° |
| 2026-04-11 18:44 | 39.78093 | -119.05173 | 28376 ft | 494 kts | 62° |
| 2026-04-11 18:45 | 39.79710 | -119.01218 | 28717 ft | 497 kts | 62° |
| 2026-04-11 18:45 | 39.81336 | -118.97227 | 29054 ft | 500 kts | 62° |
| 2026-04-11 18:45 | 39.82966 | -118.93221 | 29384 ft | 502 kts | 62° |
| 2026-04-11 18:45 | 39.84604 | -118.89196 | 29735 ft | 504 kts | 62° |
| 2026-04-11 18:46 | 39.86247 | -118.85148 | 30058 ft | 507 kts | 62° |
| 2026-04-11 18:46 | 39.87897 | -118.81077 | 30392 ft | 508 kts | 62° |
| 2026-04-11 18:46 | 39.89524 | -118.77067 | 30818 ft | 506 kts | 62° |
| 2026-04-11 18:46 | 39.91173 | -118.73029 | 31247 ft | 505 kts | 62° |
| 2026-04-11 18:47 | 39.92824 | -118.69000 | 31670 ft | 504 kts | 62° |
| 2026-04-11 18:47 | 39.94471 | -118.64979 | 32095 ft | 502 kts | 61° |
| 2026-04-11 18:47 | 39.96107 | -118.60975 | 32564 ft | 500 kts | 61° |
| 2026-04-11 18:47 | 39.97733 | -118.56979 | 33011 ft | 498 kts | 61° |
| 2026-04-11 18:48 | 39.99352 | -118.52991 | 33443 ft | 497 kts | 61° |
| 2026-04-11 18:48 | 40.00967 | -118.49012 | 33873 ft | 496 kts | 61° |
| 2026-04-11 18:48 | 40.02576 | -118.45039 | 34241 ft | 495 kts | 61° |
| 2026-04-11 18:48 | 40.04182 | -118.41070 | 34581 ft | 494 kts | 62° |
| 2026-04-11 18:49 | 40.05788 | -118.37095 | 34899 ft | 495 kts | 62° |
| 2026-04-11 18:49 | 40.07389 | -118.33129 | 35240 ft | 494 kts | 62° |
| 2026-04-11 18:49 | 40.08990 | -118.29163 | 35537 ft | 493 kts | 62° |
| 2026-04-11 18:49 | 40.10590 | -118.25192 | 35819 ft | 493 kts | 62° |
| 2026-04-11 18:50 | 40.12184 | -118.21227 | 36091 ft | 493 kts | 62° |
| 2026-04-11 18:50 | 40.13774 | -118.17263 | 36366 ft | 493 kts | 62° |
| 2026-04-11 18:50 | 40.15363 | -118.13293 | 36631 ft | 493 kts | 62° |
| 2026-04-11 18:50 | 40.16933 | -118.09370 | 36837 ft | 494 kts | 62° |
| 2026-04-11 18:51 | 40.18524 | -118.05382 | 36877 ft | 495 kts | 62° |
| 2026-04-11 18:51 | 40.21086 | -117.97069 | 36882 ft | 492 kts | 74° |
| 2026-04-11 18:52 | 40.23078 | -117.88470 | 36885 ft | 503 kts | 74° |
| 2026-04-11 18:52 | 40.25137 | -117.79683 | 36881 ft | 506 kts | 73° |
| 2026-04-11 18:53 | 40.27201 | -117.70865 | 36885 ft | 507 kts | 74° |
| 2026-04-11 18:53 | 40.29253 | -117.62028 | 36883 ft | 507 kts | 74° |
| 2026-04-11 18:54 | 40.31282 | -117.53194 | 36885 ft | 506 kts | 74° |
| 2026-04-11 18:54 | 40.33304 | -117.44361 | 36881 ft | 506 kts | 74° |
| 2026-04-11 18:55 | 40.35329 | -117.35536 | 36878 ft | 506 kts | 74° |
| 2026-04-11 18:55 | 40.37349 | -117.26692 | 36892 ft | 506 kts | 74° |
| 2026-04-11 18:56 | 40.39356 | -117.17847 | 36897 ft | 506 kts | 74° |
| 2026-04-11 18:56 | 40.41355 | -117.08981 | 36924 ft | 507 kts | 74° |
| 2026-04-11 18:57 | 40.43353 | -117.00110 | 36945 ft | 507 kts | 74° |
| 2026-04-11 18:57 | 40.45343 | -116.91235 | 36956 ft | 507 kts | 75° |
| 2026-04-11 18:58 | 40.47328 | -116.82337 | 36968 ft | 507 kts | 75° |
| 2026-04-11 18:58 | 40.49301 | -116.73436 | 36965 ft | 508 kts | 75° |
| 2026-04-11 18:59 | 40.51274 | -116.64522 | 36950 ft | 508 kts | 75° |
| 2026-04-11 18:59 | 40.53248 | -116.55611 | 36925 ft | 508 kts | 75° |
| 2026-04-11 19:00 | 40.55210 | -116.46697 | 36920 ft | 507 kts | 75° |
| 2026-04-11 19:00 | 40.56857 | -116.37704 | 36916 ft | 505 kts | 85° |
| 2026-04-11 19:01 | 40.57564 | -116.28564 | 36925 ft | 505 kts | 86° |
| 2026-04-11 19:01 | 40.58270 | -116.19373 | 36927 ft | 504 kts | 86° |
| 2026-04-11 19:02 | 40.58976 | -116.10211 | 36932 ft | 503 kts | 86° |
| 2026-04-11 19:02 | 40.59663 | -116.01049 | 36928 ft | 503 kts | 86° |
| 2026-04-11 19:03 | 40.60345 | -115.91897 | 36915 ft | 503 kts | 86° |
| 2026-04-11 19:03 | 40.61028 | -115.82739 | 36925 ft | 502 kts | 86° |
| 2026-04-11 19:04 | 40.61697 | -115.73591 | 36923 ft | 502 kts | 86° |
| 2026-04-11 19:04 | 40.62354 | -115.64426 | 36927 ft | 502 kts | 86° |
| 2026-04-11 19:05 | 40.62897 | -115.56820 | 36926 ft | 502 kts | 86° |
| 2026-04-11 19:05 | 40.63649 | -115.46164 | 36922 ft | 503 kts | 86° |
| 2026-04-11 19:06 | 40.64285 | -115.37002 | 36916 ft | 503 kts | 86° |
| 2026-04-11 19:06 | 40.64927 | -115.27822 | 36906 ft | 503 kts | 87° |
| 2026-04-11 19:07 | 40.65558 | -115.18640 | 36901 ft | 503 kts | 87° |
| 2026-04-11 19:07 | 40.66178 | -115.09457 | 36895 ft | 503 kts | 87° |
| 2026-04-11 19:08 | 40.66787 | -115.00267 | 36892 ft | 504 kts | 87° |
| 2026-04-11 19:08 | 40.67393 | -114.91078 | 36903 ft | 503 kts | 87° |
| 2026-04-11 19:09 | 40.67987 | -114.81950 | 36906 ft | 503 kts | 87° |
| 2026-04-11 19:09 | 40.68576 | -114.72769 | 36877 ft | 503 kts | 87° |
| 2026-04-11 19:10 | 40.69156 | -114.63581 | 36861 ft | 503 kts | 87° |
| 2026-04-11 19:10 | 40.69730 | -114.54386 | 36859 ft | 504 kts | 87° |
| 2026-04-11 19:11 | 40.70266 | -114.45169 | 36861 ft | 504 kts | 89° |
| 2026-04-11 19:11 | 40.70612 | -114.35947 | 36870 ft | 504 kts | 90° |
| 2026-04-11 19:12 | 40.70886 | -114.26714 | 36899 ft | 503 kts | 90° |
| 2026-04-11 19:12 | 40.71190 | -114.17495 | 36918 ft | 503 kts | 90° |
| 2026-04-11 19:13 | 40.71521 | -114.08271 | 36926 ft | 503 kts | 90° |
| 2026-04-11 19:13 | 40.71844 | -113.99131 | 36932 ft | 502 kts | 90° |
| 2026-04-11 19:14 | 40.72155 | -113.89936 | 36933 ft | 502 kts | 90° |
| 2026-04-11 19:14 | 40.72449 | -113.80748 | 36903 ft | 501 kts | 90° |
| 2026-04-11 19:15 | 40.73443 | -113.71662 | 36861 ft | 505 kts | 77° |
| 2026-04-11 19:15 | 40.75286 | -113.62727 | 36836 ft | 504 kts | 77° |
| 2026-04-11 19:16 | 40.77108 | -113.53775 | 36809 ft | 504 kts | 77° |
| 2026-04-11 19:16 | 40.78915 | -113.44835 | 36812 ft | 504 kts | 77° |
| 2026-04-11 19:17 | 40.80722 | -113.35896 | 36796 ft | 504 kts | 77° |
| 2026-04-11 19:17 | 40.82518 | -113.26960 | 36803 ft | 503 kts | 77° |
| 2026-04-11 19:18 | 40.84307 | -113.18026 | 36797 ft | 503 kts | 77° |
| 2026-04-11 19:18 | 40.86076 | -113.09153 | 36789 ft | 503 kts | 78° |
| 2026-04-11 19:19 | 40.87852 | -113.00212 | 36791 ft | 503 kts | 78° |
| 2026-04-11 19:19 | 40.89610 | -112.91279 | 36787 ft | 502 kts | 78° |
| 2026-04-11 19:20 | 40.91366 | -112.82335 | 36787 ft | 502 kts | 78° |
| 2026-04-11 19:20 | 40.93115 | -112.73391 | 36780 ft | 502 kts | 78° |
| 2026-04-11 19:21 | 40.94861 | -112.64444 | 36780 ft | 502 kts | 78° |
| 2026-04-11 19:21 | 40.96301 | -112.57013 | 36789 ft | 502 kts | 78° |
| 2026-04-11 19:22 | 40.98024 | -112.48064 | 36786 ft | 501 kts | 78° |
| 2026-04-11 19:22 | 40.99742 | -112.39122 | 36783 ft | 501 kts | 78° |
| 2026-04-11 19:23 | 41.01456 | -112.30169 | 36823 ft | 502 kts | 78° |
| 2026-04-11 19:23 | 41.03171 | -112.21205 | 36859 ft | 502 kts | 78° |
| 2026-04-11 19:24 | 41.04870 | -112.12295 | 36854 ft | 502 kts | 79° |
| 2026-04-11 19:24 | 41.06558 | -112.03320 | 36889 ft | 502 kts | 79° |
| 2026-04-11 19:25 | 41.08246 | -111.94330 | 36899 ft | 503 kts | 79° |
| 2026-04-11 19:25 | 41.09926 | -111.85336 | 36905 ft | 503 kts | 79° |
| 2026-04-11 19:26 | 41.11598 | -111.76325 | 36876 ft | 503 kts | 79° |
| 2026-04-11 19:26 | 41.13269 | -111.67313 | 36871 ft | 503 kts | 79° |
| 2026-04-11 19:27 | 41.14934 | -111.58321 | 36848 ft | 502 kts | 79° |
| 2026-04-11 19:27 | 41.16589 | -111.49321 | 36820 ft | 502 kts | 79° |
| 2026-04-11 19:28 | 41.18237 | -111.40313 | 36853 ft | 502 kts | 79° |
| 2026-04-11 19:28 | 41.19873 | -111.31291 | 36902 ft | 502 kts | 80° |
| 2026-04-11 19:29 | 41.21490 | -111.22339 | 36942 ft | 502 kts | 80° |
| 2026-04-11 19:29 | 41.23118 | -111.13313 | 36964 ft | 502 kts | 80° |
| 2026-04-11 19:30 | 41.24740 | -111.04290 | 36974 ft | 501 kts | 80° |
| 2026-04-11 19:30 | 41.26349 | -110.95279 | 36977 ft | 501 kts | 80° |
| 2026-04-11 19:31 | 41.27951 | -110.86241 | 36954 ft | 501 kts | 80° |
| 2026-04-11 19:31 | 41.29549 | -110.77223 | 36892 ft | 501 kts | 80° |
| 2026-04-11 19:32 | 41.31122 | -110.68261 | 36859 ft | 500 kts | 81° |
| 2026-04-11 19:32 | 41.32690 | -110.59245 | 36924 ft | 500 kts | 81° |
| 2026-04-11 19:33 | 41.34258 | -110.50233 | 36975 ft | 500 kts | 81° |
| 2026-04-11 19:33 | 41.35822 | -110.41216 | 36968 ft | 500 kts | 81° |
| 2026-04-11 19:34 | 41.37370 | -110.32203 | 36965 ft | 500 kts | 81° |
| 2026-04-11 19:34 | 41.38919 | -110.23181 | 36944 ft | 499 kts | 81° |
| 2026-04-11 19:35 | 41.40461 | -110.14161 | 36890 ft | 499 kts | 81° |
| 2026-04-11 19:35 | 41.41997 | -110.05135 | 36814 ft | 500 kts | 81° |
| 2026-04-11 19:36 | 41.43523 | -109.96076 | 36761 ft | 502 kts | 82° |
| 2026-04-11 19:36 | 41.45041 | -109.87044 | 36737 ft | 502 kts | 82° |
| 2026-04-11 19:37 | 41.47320 | -109.73391 | 36726 ft | 503 kts | 82° |
| 2026-04-11 19:37 | 41.48829 | -109.64284 | 36744 ft | 503 kts | 82° |
| 2026-04-11 19:38 | 41.50329 | -109.55176 | 36756 ft | 503 kts | 82° |
| 2026-04-11 19:38 | 41.51829 | -109.46064 | 36802 ft | 502 kts | 82° |
| 2026-04-11 19:39 | 41.53316 | -109.36961 | 36853 ft | 502 kts | 82° |
| 2026-04-11 19:39 | 41.54800 | -109.27865 | 36909 ft | 501 kts | 82° |
| 2026-04-11 19:40 | 41.56268 | -109.18777 | 36956 ft | 500 kts | 82° |
| 2026-04-11 19:40 | 41.57718 | -109.09689 | 36946 ft | 500 kts | 82° |
| 2026-04-11 19:41 | 41.59093 | -109.00595 | 36947 ft | 496 kts | 88° |
| 2026-04-11 19:41 | 41.59827 | -108.91447 | 36939 ft | 495 kts | 89° |
| 2026-04-11 19:42 | 41.60534 | -108.82366 | 36906 ft | 495 kts | 89° |
| 2026-04-11 19:42 | 41.61243 | -108.73216 | 36786 ft | 495 kts | 89° |
| 2026-04-11 19:43 | 41.61941 | -108.64067 | 36790 ft | 495 kts | 89° |
| 2026-04-11 19:43 | 41.62629 | -108.54914 | 36792 ft | 495 kts | 89° |
| 2026-04-11 19:44 | 41.63316 | -108.45768 | 36797 ft | 495 kts | 89° |
| 2026-04-11 19:44 | 41.63988 | -108.36619 | 36781 ft | 495 kts | 90° |
| 2026-04-11 19:45 | 41.64656 | -108.27451 | 36777 ft | 495 kts | 90° |
| 2026-04-11 19:45 | 41.65322 | -108.18275 | 36781 ft | 496 kts | 90° |
| 2026-04-11 19:46 | 41.65974 | -108.09157 | 36790 ft | 496 kts | 90° |
| 2026-04-11 19:46 | 41.66622 | -107.99973 | 36791 ft | 496 kts | 90° |
| 2026-04-11 19:47 | 41.67259 | -107.90787 | 36790 ft | 496 kts | 90° |
| 2026-04-11 19:47 | 41.67898 | -107.81605 | 36788 ft | 496 kts | 90° |
| 2026-04-11 19:48 | 41.68528 | -107.72406 | 36770 ft | 496 kts | 90° |
| 2026-04-11 19:48 | 41.69140 | -107.63205 | 36787 ft | 496 kts | 90° |
| 2026-04-11 19:49 | 41.69754 | -107.53992 | 36830 ft | 497 kts | 90° |
| 2026-04-11 19:49 | 41.70371 | -107.44783 | 36876 ft | 497 kts | 90° |
| 2026-04-11 19:50 | 41.70969 | -107.35571 | 36897 ft | 497 kts | 90° |
| 2026-04-11 19:50 | 41.71551 | -107.26404 | 36940 ft | 498 kts | 91° |
| 2026-04-11 19:51 | 41.72134 | -107.17162 | 36952 ft | 498 kts | 90° |
| 2026-04-11 19:51 | 41.72718 | -107.07926 | 36926 ft | 498 kts | 91° |
| 2026-04-11 19:52 | 41.73289 | -106.98679 | 36886 ft | 499 kts | 91° |
| 2026-04-11 19:52 | 41.73855 | -106.89405 | 36853 ft | 499 kts | 91° |
| 2026-04-11 19:53 | 41.74413 | -106.80130 | 36764 ft | 500 kts | 91° |
| 2026-04-11 19:53 | 41.74960 | -106.70840 | 36777 ft | 500 kts | 91° |
| 2026-04-11 19:54 | 41.75506 | -106.61548 | 36765 ft | 500 kts | 91° |
| 2026-04-11 19:54 | 41.76049 | -106.52264 | 36775 ft | 500 kts | 91° |
| 2026-04-11 19:55 | 41.76570 | -106.42971 | 36785 ft | 500 kts | 91° |
| 2026-04-11 19:55 | 41.77086 | -106.33675 | 36778 ft | 500 kts | 91° |
| 2026-04-11 19:56 | 41.77606 | -106.24374 | 36765 ft | 501 kts | 91° |
| 2026-04-11 19:56 | 41.78111 | -106.15115 | 36765 ft | 502 kts | 91° |
| 2026-04-11 19:57 | 41.78613 | -106.05770 | 36759 ft | 503 kts | 91° |
| 2026-04-11 19:57 | 41.79104 | -105.96408 | 36742 ft | 504 kts | 91° |
| 2026-04-11 19:58 | 41.79595 | -105.87033 | 36753 ft | 505 kts | 91° |
| 2026-04-11 19:58 | 41.80073 | -105.77639 | 36755 ft | 506 kts | 91° |
| 2026-04-11 19:59 | 41.80548 | -105.68229 | 36757 ft | 506 kts | 91° |
| 2026-04-11 19:59 | 41.81018 | -105.58811 | 36741 ft | 507 kts | 91° |
| 2026-04-11 20:00 | 41.81480 | -105.49377 | 36756 ft | 507 kts | 91° |
| 2026-04-11 20:00 | 41.81934 | -105.39933 | 36764 ft | 508 kts | 91° |
| 2026-04-11 20:01 | 41.82377 | -105.30487 | 36785 ft | 508 kts | 92° |
| 2026-04-11 20:01 | 41.82807 | -105.21036 | 36779 ft | 508 kts | 92° |
| 2026-04-11 20:02 | 41.83235 | -105.11561 | 36772 ft | 509 kts | 92° |
| 2026-04-11 20:02 | 41.83658 | -105.02071 | 36781 ft | 510 kts | 92° |
| 2026-04-11 20:03 | 41.84070 | -104.92588 | 36830 ft | 510 kts | 92° |
| 2026-04-11 20:03 | 41.84483 | -104.83078 | 36809 ft | 512 kts | 92° |
| 2026-04-11 20:04 | 41.84889 | -104.73533 | 36802 ft | 513 kts | 92° |
| 2026-04-11 20:04 | 41.85286 | -104.63959 | 36798 ft | 515 kts | 92° |
| 2026-04-11 20:05 | 41.85666 | -104.54365 | 36786 ft | 515 kts | 92° |
| 2026-04-11 20:05 | 41.86037 | -104.44766 | 36797 ft | 516 kts | 92° |
| 2026-04-11 20:06 | 41.86418 | -104.35157 | 36801 ft | 516 kts | 92° |
| 2026-04-11 20:06 | 41.86789 | -104.25537 | 36816 ft | 516 kts | 92° |
| 2026-04-11 20:07 | 41.87084 | -104.17537 | 36801 ft | 516 kts | 92° |
| 2026-04-11 20:07 | 41.87429 | -104.07908 | 36816 ft | 516 kts | 92° |
| 2026-04-11 20:08 | 41.87773 | -103.98281 | 36807 ft | 516 kts | 92° |
| 2026-04-11 20:08 | 41.88107 | -103.88664 | 36824 ft | 516 kts | 92° |
| 2026-04-11 20:09 | 41.88428 | -103.79051 | 36827 ft | 515 kts | 92° |
| 2026-04-11 20:09 | 41.88741 | -103.69461 | 36858 ft | 514 kts | 92° |
| 2026-04-11 20:10 | 41.88947 | -103.63115 | 36860 ft | 514 kts | 92° |
| 2026-04-11 20:10 | 41.89000 | -103.61495 | 36861 ft | 514 kts | 92° |
| 2026-04-11 20:11 | 41.90454 | -103.40816 | 36829 ft | 519 kts | 83° |
| 2026-04-11 20:11 | 41.91808 | -103.31293 | 36812 ft | 519 kts | 83° |
| 2026-04-11 20:12 | 41.93153 | -103.21772 | 36794 ft | 519 kts | 83° |
| 2026-04-11 20:12 | 41.94485 | -103.12237 | 36784 ft | 520 kts | 83° |
| 2026-04-11 20:13 | 41.95805 | -103.02685 | 36808 ft | 520 kts | 83° |
| 2026-04-11 20:13 | 41.97118 | -102.93129 | 36830 ft | 520 kts | 83° |
| 2026-04-11 20:14 | 41.98427 | -102.83574 | 36848 ft | 520 kts | 83° |
| 2026-04-11 20:14 | 41.99721 | -102.73998 | 36826 ft | 520 kts | 83° |
| 2026-04-11 20:15 | 42.01012 | -102.64424 | 36828 ft | 521 kts | 83° |
| 2026-04-11 20:15 | 42.02298 | -102.54839 | 36821 ft | 521 kts | 83° |
| 2026-04-11 20:16 | 42.03575 | -102.45246 | 36813 ft | 521 kts | 83° |
| 2026-04-11 20:16 | 42.04839 | -102.35659 | 36783 ft | 521 kts | 83° |
| 2026-04-11 20:17 | 42.06099 | -102.26116 | 36797 ft | 521 kts | 83° |
| 2026-04-11 20:17 | 42.07351 | -102.16504 | 36814 ft | 522 kts | 83° |
| 2026-04-11 20:18 | 42.08594 | -102.06874 | 36809 ft | 522 kts | 83° |
| 2026-04-11 20:18 | 42.09844 | -101.97238 | 36814 ft | 523 kts | 83° |
| 2026-04-11 20:19 | 42.11081 | -101.87593 | 36835 ft | 523 kts | 83° |
| 2026-04-11 20:19 | 42.12308 | -101.77942 | 36836 ft | 523 kts | 83° |
| 2026-04-11 20:20 | 42.13517 | -101.68276 | 36847 ft | 523 kts | 83° |
| 2026-04-11 20:20 | 42.14709 | -101.58676 | 36842 ft | 523 kts | 83° |
| 2026-04-11 20:21 | 42.15916 | -101.49001 | 36850 ft | 524 kts | 83° |
| 2026-04-11 20:21 | 42.17119 | -101.39319 | 36857 ft | 524 kts | 83° |
| 2026-04-11 20:22 | 42.18307 | -101.29629 | 36847 ft | 524 kts | 83° |
| 2026-04-11 20:22 | 42.19481 | -101.19931 | 36848 ft | 524 kts | 83° |
| 2026-04-11 20:23 | 42.20643 | -101.10282 | 36856 ft | 525 kts | 83° |
| 2026-04-11 20:23 | 42.21812 | -101.00564 | 36870 ft | 525 kts | 83° |
| 2026-04-11 20:24 | 42.22971 | -100.90839 | 36869 ft | 525 kts | 83° |
| 2026-04-11 20:24 | 42.24122 | -100.81108 | 36873 ft | 525 kts | 83° |
| 2026-04-11 20:25 | 42.25262 | -100.71381 | 36874 ft | 525 kts | 83° |
| 2026-04-11 20:25 | 42.26392 | -100.61640 | 36877 ft | 525 kts | 84° |
| 2026-04-11 20:26 | 42.27513 | -100.51889 | 36879 ft | 525 kts | 83° |
| 2026-04-11 20:26 | 42.28626 | -100.42139 | 36895 ft | 526 kts | 84° |
| 2026-04-11 20:27 | 42.29735 | -100.32375 | 36897 ft | 526 kts | 83° |
| 2026-04-11 20:27 | 42.30847 | -100.22601 | 36903 ft | 526 kts | 84° |
| 2026-04-11 20:28 | 42.31940 | -100.12829 | 36893 ft | 526 kts | 84° |
| 2026-04-11 20:28 | 42.33019 | -100.03057 | 36895 ft | 526 kts | 84° |
| 2026-04-11 20:29 | 42.34093 | -99.93287 | 36895 ft | 525 kts | 84° |
| 2026-04-11 20:29 | 42.35154 | -99.83585 | 36895 ft | 525 kts | 84° |
| 2026-04-11 20:30 | 42.36220 | -99.73742 | 36888 ft | 525 kts | 84° |
| 2026-04-11 20:30 | 42.37263 | -99.64021 | 36900 ft | 526 kts | 84° |
| 2026-04-11 20:31 | 42.38308 | -99.54239 | 36898 ft | 526 kts | 84° |
| 2026-04-11 20:31 | 42.39346 | -99.44450 | 36886 ft | 526 kts | 84° |
| 2026-04-11 20:32 | 42.40372 | -99.34648 | 36893 ft | 526 kts | 84° |
| 2026-04-11 20:32 | 42.41391 | -99.24854 | 36899 ft | 526 kts | 84° |
| 2026-04-11 20:33 | 42.42397 | -99.15044 | 36907 ft | 526 kts | 84° |
| 2026-04-11 20:33 | 42.43395 | -99.05232 | 36906 ft | 526 kts | 84° |
| 2026-04-11 20:34 | 42.44393 | -98.95424 | 36918 ft | 526 kts | 84° |
| 2026-04-11 20:34 | 42.45381 | -98.85609 | 36926 ft | 526 kts | 84° |
| 2026-04-11 20:35 | 42.46357 | -98.75804 | 36935 ft | 525 kts | 85° |
| 2026-04-11 20:35 | 42.47338 | -98.65990 | 36917 ft | 526 kts | 83° |
| 2026-04-11 20:36 | 42.48628 | -98.56241 | 36916 ft | 526 kts | 80° |
| 2026-04-11 20:36 | 42.50121 | -98.46530 | 36917 ft | 527 kts | 80° |
| 2026-04-11 20:37 | 42.51549 | -98.36853 | 36917 ft | 527 kts | 81° |
| 2026-04-11 20:37 | 42.52887 | -98.27089 | 36915 ft | 527 kts | 82° |
| 2026-04-11 20:38 | 42.54187 | -98.17315 | 36930 ft | 527 kts | 82° |
| 2026-04-11 20:38 | 42.55505 | -98.07534 | 36934 ft | 527 kts | 81° |
| 2026-04-11 20:39 | 42.56832 | -97.97735 | 36943 ft | 528 kts | 81° |
| 2026-04-11 20:39 | 42.58151 | -97.87942 | 36959 ft | 528 kts | 81° |
| 2026-04-11 20:40 | 42.59461 | -97.78130 | 36956 ft | 529 kts | 81° |
| 2026-04-11 20:40 | 42.60771 | -97.68292 | 36972 ft | 529 kts | 82° |
| 2026-04-11 20:41 | 42.62062 | -97.58459 | 36983 ft | 529 kts | 82° |
| 2026-04-11 20:41 | 42.63346 | -97.48613 | 36987 ft | 529 kts | 81° |
| 2026-04-11 20:42 | 42.64626 | -97.38766 | 36985 ft | 529 kts | 81° |
| 2026-04-11 20:42 | 42.65884 | -97.28919 | 36988 ft | 529 kts | 81° |
| 2026-04-11 20:43 | 42.67133 | -97.19118 | 36983 ft | 529 kts | 81° |
| 2026-04-11 20:43 | 42.68381 | -97.09264 | 36973 ft | 529 kts | 82° |
| 2026-04-11 20:44 | 42.69629 | -96.99397 | 36966 ft | 530 kts | 82° |
| 2026-04-11 20:44 | 42.70870 | -96.89526 | 36965 ft | 530 kts | 82° |
| 2026-04-11 20:45 | 42.72101 | -96.79652 | 36962 ft | 529 kts | 81° |
| 2026-04-11 20:45 | 42.73315 | -96.69791 | 36996 ft | 529 kts | 82° |
| 2026-04-11 20:46 | 42.74518 | -96.59928 | 37026 ft | 528 kts | 82° |
| 2026-04-11 20:47 | 42.76307 | -96.45144 | 37022 ft | 528 kts | 82° |
| 2026-04-11 20:47 | 42.77488 | -96.35284 | 37021 ft | 527 kts | 82° |
| 2026-04-11 20:48 | 42.78656 | -96.25506 | 37015 ft | 526 kts | 82° |
| 2026-04-11 20:48 | 42.79819 | -96.15660 | 37026 ft | 526 kts | 82° |
| 2026-04-11 20:49 | 42.80974 | -96.05834 | 37013 ft | 526 kts | 82° |
| 2026-04-11 20:49 | 42.82123 | -95.96014 | 37044 ft | 525 kts | 82° |
| 2026-04-11 20:50 | 42.83255 | -95.86195 | 37066 ft | 525 kts | 82° |
| 2026-04-11 20:50 | 42.84381 | -95.76368 | 37105 ft | 524 kts | 82° |
| 2026-04-11 20:51 | 42.85492 | -95.66552 | 37102 ft | 524 kts | 82° |
| 2026-04-11 20:51 | 42.86598 | -95.56727 | 37085 ft | 524 kts | 82° |
| 2026-04-11 20:52 | 42.87688 | -95.46964 | 37081 ft | 524 kts | 82° |
| 2026-04-11 20:52 | 42.88782 | -95.37131 | 37093 ft | 524 kts | 82° |
| 2026-04-11 20:53 | 42.89872 | -95.27288 | 37142 ft | 524 kts | 82° |
| 2026-04-11 20:53 | 42.90952 | -95.17448 | 37144 ft | 525 kts | 83° |
| 2026-04-11 20:54 | 42.92022 | -95.07596 | 37133 ft | 525 kts | 83° |
| 2026-04-11 20:54 | 42.93077 | -94.97733 | 37139 ft | 526 kts | 83° |
| 2026-04-11 20:55 | 42.94136 | -94.87845 | 37136 ft | 526 kts | 83° |
| 2026-04-11 20:55 | 42.95006 | -94.79627 | 37151 ft | 527 kts | 83° |
| 2026-04-11 20:56 | 42.96036 | -94.69719 | 37158 ft | 527 kts | 83° |
| 2026-04-11 20:56 | 42.97066 | -94.59797 | 37137 ft | 528 kts | 83° |
| 2026-04-11 20:57 | 42.98102 | -94.49873 | 37127 ft | 528 kts | 82° |
| 2026-04-11 20:57 | 42.99125 | -94.39924 | 37110 ft | 529 kts | 83° |
| 2026-04-11 20:58 | 43.00127 | -94.29969 | 37096 ft | 529 kts | 83° |
| 2026-04-11 20:58 | 43.01115 | -94.20070 | 37097 ft | 530 kts | 83° |
| 2026-04-11 20:59 | 43.02108 | -94.10087 | 37116 ft | 529 kts | 83° |
| 2026-04-11 20:59 | 43.03091 | -94.00113 | 37137 ft | 529 kts | 83° |
| 2026-04-11 21:00 | 43.04063 | -93.90141 | 37150 ft | 529 kts | 83° |
| 2026-04-11 21:00 | 43.05035 | -93.80171 | 37176 ft | 529 kts | 83° |
| 2026-04-11 21:01 | 43.05994 | -93.70198 | 37161 ft | 529 kts | 83° |
| 2026-04-11 21:01 | 43.06943 | -93.60231 | 37157 ft | 529 kts | 83° |
| 2026-04-11 21:02 | 43.07882 | -93.50252 | 37155 ft | 529 kts | 83° |
| 2026-04-11 21:02 | 43.08802 | -93.40278 | 37147 ft | 528 kts | 83° |
| 2026-04-11 21:03 | 43.09303 | -93.30346 | 37141 ft | 526 kts | 96° |
| 2026-04-11 21:03 | 43.08661 | -93.20394 | 37146 ft | 525 kts | 97° |
| 2026-04-11 21:04 | 43.08008 | -93.10447 | 37155 ft | 525 kts | 97° |
| 2026-04-11 21:04 | 43.07353 | -93.00496 | 37168 ft | 525 kts | 97° |
| 2026-04-11 21:05 | 43.06680 | -92.90541 | 37178 ft | 526 kts | 97° |
| 2026-04-11 21:05 | 43.05989 | -92.80576 | 37192 ft | 526 kts | 97° |
| 2026-04-11 21:06 | 43.05303 | -92.70601 | 37187 ft | 526 kts | 97° |
| 2026-04-11 21:06 | 43.04614 | -92.60632 | 37187 ft | 527 kts | 97° |
| 2026-04-11 21:07 | 43.03907 | -92.50648 | 37185 ft | 528 kts | 97° |
| 2026-04-11 21:07 | 43.03183 | -92.40668 | 37204 ft | 528 kts | 97° |
| 2026-04-11 21:08 | 43.02458 | -92.30747 | 37216 ft | 529 kts | 97° |
| 2026-04-11 21:08 | 43.01716 | -92.20741 | 37243 ft | 529 kts | 97° |
| 2026-04-11 21:09 | 43.00979 | -92.10737 | 37265 ft | 529 kts | 97° |
| 2026-04-11 21:09 | 43.00229 | -92.00745 | 37250 ft | 529 kts | 97° |
| 2026-04-11 21:10 | 42.99458 | -91.90744 | 37263 ft | 529 kts | 97° |
| 2026-04-11 21:10 | 42.98687 | -91.80756 | 37258 ft | 529 kts | 97° |
| 2026-04-11 21:11 | 42.97908 | -91.70763 | 37261 ft | 529 kts | 97° |
| 2026-04-11 21:11 | 42.97125 | -91.60778 | 37280 ft | 529 kts | 97° |
| 2026-04-11 21:12 | 42.96323 | -91.50799 | 37295 ft | 529 kts | 97° |
| 2026-04-11 21:12 | 42.95510 | -91.40807 | 37277 ft | 528 kts | 97° |
| 2026-04-11 21:12 | 42.95110 | -91.35884 | 37258 ft | 514 kts | 97° |
| 2026-04-11 21:13 | 42.94722 | -91.31105 | 37267 ft | 500 kts | 97° |
| 2026-04-11 21:13 | 42.93957 | -91.21778 | 37259 ft | 492 kts | 97° |
| 2026-04-11 21:14 | 42.93186 | -91.12516 | 37266 ft | 491 kts | 97° |
| 2026-04-11 21:14 | 42.92403 | -91.03255 | 37261 ft | 492 kts | 97° |
| 2026-04-11 21:15 | 42.91620 | -90.93981 | 37273 ft | 492 kts | 97° |
| 2026-04-11 21:15 | 42.90819 | -90.84713 | 37308 ft | 492 kts | 98° |
| 2026-04-11 21:16 | 42.90016 | -90.75500 | 37317 ft | 492 kts | 97° |
| 2026-04-11 21:16 | 42.89609 | -90.70847 | 37179 ft | 500 kts | 97° |
| 2026-04-11 21:16 | 42.89194 | -90.66108 | 36923 ft | 505 kts | 97° |
| 2026-04-11 21:16 | 42.88775 | -90.61347 | 36668 ft | 506 kts | 97° |
| 2026-04-11 21:17 | 42.88351 | -90.56589 | 36405 ft | 505 kts | 97° |
| 2026-04-11 21:17 | 42.87929 | -90.51856 | 36021 ft | 501 kts | 97° |
| 2026-04-11 21:17 | 42.87511 | -90.47142 | 35486 ft | 501 kts | 97° |
| 2026-04-11 21:17 | 42.87093 | -90.42436 | 34971 ft | 500 kts | 97° |
| 2026-04-11 21:18 | 42.86673 | -90.37721 | 34464 ft | 500 kts | 97° |
| 2026-04-11 21:18 | 42.86249 | -90.33020 | 33887 ft | 500 kts | 97° |
| 2026-04-11 21:18 | 42.85818 | -90.28331 | 33387 ft | 497 kts | 97° |
| 2026-04-11 21:18 | 42.85386 | -90.23658 | 32871 ft | 495 kts | 97° |
| 2026-04-11 21:19 | 42.84956 | -90.19018 | 32356 ft | 492 kts | 98° |
| 2026-04-11 21:19 | 42.84528 | -90.14408 | 31866 ft | 489 kts | 98° |
| 2026-04-11 21:19 | 42.84003 | -90.09844 | 31367 ft | 486 kts | 104° |
| 2026-04-11 21:19 | 42.83024 | -90.05474 | 30891 ft | 480 kts | 113° |
| 2026-04-11 21:20 | 42.81845 | -90.01229 | 30415 ft | 477 kts | 113° |
| 2026-04-11 21:20 | 42.80673 | -89.97017 | 29914 ft | 474 kts | 114° |
| 2026-04-11 21:20 | 42.79507 | -89.92841 | 29471 ft | 468 kts | 114° |
| 2026-04-11 21:20 | 42.78346 | -89.88715 | 29019 ft | 464 kts | 114° |
| 2026-04-11 21:21 | 42.77205 | -89.84692 | 28587 ft | 460 kts | 114° |
| 2026-04-11 21:21 | 42.76053 | -89.80659 | 28151 ft | 456 kts | 114° |
| 2026-04-11 21:21 | 42.74901 | -89.76647 | 27696 ft | 453 kts | 114° |
| 2026-04-11 21:21 | 42.73759 | -89.72672 | 27252 ft | 450 kts | 114° |
| 2026-04-11 21:22 | 42.72632 | -89.68738 | 26780 ft | 443 kts | 113° |
| 2026-04-11 21:22 | 42.71524 | -89.64860 | 26331 ft | 435 kts | 113° |
| 2026-04-11 21:22 | 42.70435 | -89.61055 | 25852 ft | 428 kts | 113° |
| 2026-04-11 21:22 | 42.69362 | -89.57311 | 25385 ft | 422 kts | 113° |
| 2026-04-11 21:23 | 42.68304 | -89.53627 | 24904 ft | 416 kts | 113° |
| 2026-04-11 21:23 | 42.67257 | -89.49994 | 24422 ft | 409 kts | 112° |
| 2026-04-11 21:23 | 42.66224 | -89.46409 | 23962 ft | 407 kts | 112° |
| 2026-04-11 21:23 | 42.65195 | -89.42833 | 23428 ft | 405 kts | 112° |
| 2026-04-11 21:24 | 42.64172 | -89.39277 | 22966 ft | 402 kts | 112° |
| 2026-04-11 21:24 | 42.63157 | -89.35761 | 22512 ft | 399 kts | 112° |
| 2026-04-11 21:24 | 42.62148 | -89.32271 | 22062 ft | 396 kts | 113° |
| 2026-04-11 21:24 | 42.61140 | -89.28806 | 21603 ft | 393 kts | 113° |
| 2026-04-11 21:25 | 42.60138 | -89.25371 | 21172 ft | 390 kts | 113° |
| 2026-04-11 21:25 | 42.59145 | -89.21967 | 20737 ft | 387 kts | 113° |
| 2026-04-11 21:25 | 42.58158 | -89.18575 | 20306 ft | 385 kts | 113° |
| 2026-04-11 21:25 | 42.57178 | -89.15215 | 19869 ft | 382 kts | 113° |
| 2026-04-11 21:26 | 42.56200 | -89.11874 | 19438 ft | 380 kts | 113° |
| 2026-04-11 21:26 | 42.55223 | -89.08553 | 19007 ft | 378 kts | 114° |
| 2026-04-11 21:26 | 42.54244 | -89.05261 | 18565 ft | 375 kts | 114° |
| 2026-04-11 21:26 | 42.53265 | -89.01995 | 18084 ft | 372 kts | 114° |
| 2026-04-11 21:27 | 42.52283 | -88.98734 | 17320 ft | 371 kts | 115° |
| 2026-04-11 21:27 | 42.51319 | -88.95536 | 16865 ft | 359 kts | 115° |
| 2026-04-11 21:27 | 42.50397 | -88.92468 | 16534 ft | 346 kts | 115° |
| 2026-04-11 21:27 | 42.49501 | -88.89497 | 16160 ft | 345 kts | 115° |
| 2026-04-11 21:28 | 42.48590 | -88.86497 | 15781 ft | 343 kts | 116° |
| 2026-04-11 21:28 | 42.47680 | -88.83505 | 15406 ft | 342 kts | 116° |
| 2026-04-11 21:28 | 42.46779 | -88.80529 | 15035 ft | 341 kts | 116° |
| 2026-04-11 21:28 | 42.45882 | -88.77558 | 14667 ft | 340 kts | 116° |
| 2026-04-11 21:29 | 42.44989 | -88.74599 | 14294 ft | 340 kts | 116° |
| 2026-04-11 21:29 | 42.44095 | -88.71643 | 13889 ft | 338 kts | 116° |
| 2026-04-11 21:29 | 42.43202 | -88.68701 | 13511 ft | 336 kts | 117° |
| 2026-04-11 21:29 | 42.42316 | -88.65788 | 13139 ft | 334 kts | 117° |
| 2026-04-11 21:30 | 42.41435 | -88.62895 | 12765 ft | 331 kts | 117° |
| 2026-04-11 21:30 | 42.40559 | -88.60020 | 12384 ft | 329 kts | 117° |
| 2026-04-11 21:30 | 42.39687 | -88.57160 | 11987 ft | 327 kts | 117° |
| 2026-04-11 21:30 | 42.38817 | -88.54319 | 11598 ft | 325 kts | 118° |
| 2026-04-11 21:31 | 42.37673 | -88.51742 | 11219 ft | 315 kts | 134° |
| 2026-04-11 21:31 | 42.36128 | -88.49717 | 10852 ft | 305 kts | 149° |
| 2026-04-11 21:31 | 42.34327 | -88.48329 | 10536 ft | 293 kts | 163° |
| 2026-04-11 21:32 | 42.30580 | -88.46405 | 9888 ft | 284 kts | 165° |
| 2026-04-11 21:32 | 42.28745 | -88.45459 | 9582 ft | 281 kts | 165° |
| 2026-04-11 21:32 | 42.26924 | -88.44524 | 9281 ft | 279 kts | 165° |
| 2026-04-11 21:32 | 42.25113 | -88.43594 | 8972 ft | 278 kts | 164° |
| 2026-04-11 21:33 | 42.23312 | -88.42671 | 8674 ft | 276 kts | 164° |
| 2026-04-11 21:33 | 42.21528 | -88.41757 | 8437 ft | 269 kts | 164° |
| 2026-04-11 21:33 | 42.19793 | -88.40868 | 8122 ft | 264 kts | 164° |
| 2026-04-11 21:33 | 42.18132 | -88.40014 | 7958 ft | 253 kts | 164° |
| 2026-04-11 21:34 | 42.16470 | -88.39159 | 7589 ft | 252 kts | 164° |
| 2026-04-11 21:34 | 42.14858 | -88.38335 | 7240 ft | 250 kts | 164° |
| 2026-04-11 21:34 | 42.13232 | -88.37508 | 6869 ft | 249 kts | 164° |
| 2026-04-11 21:34 | 42.11616 | -88.36688 | 6493 ft | 247 kts | 164° |
| 2026-04-11 21:35 | 42.10034 | -88.35884 | 6303 ft | 238 kts | 163° |
| 2026-04-11 21:35 | 42.08503 | -88.35104 | 6143 ft | 234 kts | 163° |
| 2026-04-11 21:35 | 42.06981 | -88.34332 | 6017 ft | 233 kts | 163° |
| 2026-04-11 21:35 | 42.05532 | -88.33355 | 5881 ft | 238 kts | 145° |
| 2026-04-11 21:36 | 42.04345 | -88.31778 | 5759 ft | 241 kts | 137° |
| 2026-04-11 21:36 | 42.03215 | -88.30116 | 5634 ft | 241 kts | 136° |
| 2026-04-11 21:36 | 42.02221 | -88.28300 | 5505 ft | 245 kts | 120° |
| 2026-04-11 21:36 | 42.01514 | -88.26213 | 5378 ft | 245 kts | 116° |
| 2026-04-11 21:37 | 42.00845 | -88.24105 | 5233 ft | 245 kts | 116° |
| 2026-04-11 21:37 | 42.00180 | -88.22003 | 5031 ft | 243 kts | 116° |
| 2026-04-11 21:37 | 41.99520 | -88.19939 | 4766 ft | 239 kts | 116° |
| 2026-04-11 21:37 | 41.98887 | -88.17887 | 4461 ft | 238 kts | 110° |
| 2026-04-11 21:38 | 41.98733 | -88.15649 | 4074 ft | 243 kts | 91° |
| 2026-04-11 21:38 | 41.98780 | -88.13419 | 3740 ft | 238 kts | 91° |
| 2026-04-11 21:38 | 41.98804 | -88.11230 | 3432 ft | 224 kts | 92° |
| 2026-04-11 21:38 | 41.98809 | -88.09216 | 3137 ft | 212 kts | 92° |
| 2026-04-11 21:39 | 41.98813 | -88.07280 | 2842 ft | 202 kts | 94° |
| 2026-04-11 21:39 | 41.98816 | -88.05441 | 2594 ft | 190 kts | 93° |
| 2026-04-11 21:39 | 41.98819 | -88.03709 | 2327 ft | 180 kts | 93° |
| 2026-04-11 21:39 | 41.98821 | -88.02077 | 2079 ft | 169 kts | 93° |
| 2026-04-11 21:40 | 41.98824 | -88.00606 | 1859 ft | 147 kts | 93° |
| 2026-04-11 21:40 | 41.98826 | -87.99318 | 1656 ft | 130 kts | 94° |
| 2026-04-11 21:40 | 41.98827 | -87.98151 | 1463 ft | 122 kts | 94° |
| 2026-04-11 21:40 | 41.98827 | -87.97015 | 1297 ft | 122 kts | 92° |
| 2026-04-11 21:41 | 41.98828 | -87.95885 | 1114 ft | 119 kts | 94° |
| 2026-04-11 21:41 | 41.98827 | -87.94762 | 932 ft | 121 kts | 92° |
| 2026-04-11 21:41 | 41.98822 | -87.94008 | 856 ft | 121 kts | 90° |
| 2026-04-11 21:41 | 41.98836 | -87.92882 | 717 ft | 119 kts | 90° |
| 2026-04-11 21:42 | 41.98830 | -87.91514 | 668 ft | 89 kts | 90° |
| 2026-04-11 21:42 | 41.98827 | -87.90927 | 670 ft | 41 kts | 90° |
| 2026-04-11 21:42 | 41.98826 | -87.90689 | 672 ft | 21 kts | 92° |
| 2026-04-11 21:42 | 41.98797 | -87.90567 | 672 ft | 21 kts | 119° |
| 2026-04-11 21:43 | 41.98718 | -87.90390 | 669 ft | 23 kts | 122° |
| 2026-04-11 21:43 | 41.98679 | -87.90185 | 669 ft | 23 kts | 90° |
| 2026-04-11 21:43 | 41.98679 | -87.89962 | 669 ft | 24 kts | 90° |
| 2026-04-11 21:43 | 41.98679 | -87.89732 | 669 ft | 25 kts | 90° |
| 2026-04-11 21:44 | 41.98673 | -87.89523 | 669 ft | 17 kts | 105° |
| 2026-04-11 21:44 | 41.98574 | -87.89494 | 669 ft | 16 kts | 181° |
| 2026-04-11 21:44 | 41.98462 | -87.89493 | 670 ft | 16 kts | 175° |
| 2026-04-11 21:44 | 41.98361 | -87.89423 | 670 ft | 17 kts | 137° |
| 2026-04-11 21:45 | 41.98269 | -87.89312 | 670 ft | 19 kts | 141° |
| 2026-04-11 21:45 | 41.98161 | -87.89211 | 668 ft | 19 kts | 171° |
| 2026-04-11 21:45 | 41.98067 | -87.89320 | 669 ft | 19 kts | 230° |
| 2026-04-11 21:45 | 41.97978 | -87.89461 | 667 ft | 20 kts | 229° |
| 2026-04-11 21:46 | 41.97853 | -87.89527 | 669 ft | 21 kts | 180° |
| 2026-04-11 21:46 | 41.97719 | -87.89525 | 669 ft | 14 kts | 179° |
| 2026-04-11 21:46 | 41.97617 | -87.89523 | 669 ft | 15 kts | 181° |
| 2026-04-11 21:46 | 41.97505 | -87.89526 | 669 ft | 17 kts | 181° |
| 2026-04-11 21:47 | 41.97386 | -87.89551 | 669 ft | 18 kts | 204° |
| 2026-04-11 21:47 | 41.97278 | -87.89767 | 667 ft | 10 kts | 317° |
| 2026-04-11 21:47 | 41.97347 | -87.89820 | 668 ft | 12 kts | 330° |
| 2026-04-11 21:48 | 41.97408 | -87.89778 | 669 ft | 6 kts | 38° |
| 2026-04-11 21:48 | 41.97418 | -87.89768 | 668 ft | 0 kts | 38° |